createdAt,value
2023-03-06T00:00:59.386Z,5.05
2023-03-06T00:03:27.959Z,4.70
2023-03-06T00:05:57.266Z,4.95
2023-03-06T00:08:25.469Z,4.45
2023-03-06T00:10:56.251Z,4.60
2023-03-06T00:13:23.778Z,4.38
2023-03-06T00:15:50.507Z,4.60
2023-03-06T00:18:17.198Z,4.57
2023-03-06T00:20:45.140Z,4.60
2023-03-06T00:23:12.410Z,5.00
2023-03-06T00:25:43.934Z,5.35
2023-03-06T00:28:12.310Z,5.05
2023-03-06T00:30:39.233Z,4.93
2023-03-06T00:33:05.889Z,4.95
2023-03-06T00:35:32.607Z,5.20
2023-03-06T00:37:59.747Z,5.35
2023-03-06T00:40:26.833Z,5.05
2023-03-06T00:42:53.502Z,5.47
2023-03-06T00:45:20.294Z,5.05
2023-03-06T00:47:46.929Z,4.88
2023-03-06T00:50:13.633Z,5.28
2023-03-06T00:52:41.807Z,5.60
2023-03-06T00:55:10.261Z,5.28
2023-03-06T00:57:37.052Z,5.22
2023-03-06T01:00:05.519Z,5.72
2023-03-06T01:02:32.572Z,5.70
2023-03-06T01:04:59.424Z,5.47
2023-03-06T01:07:27.650Z,5.88
2023-03-06T01:09:54.366Z,6.13
2023-03-06T01:12:23.411Z,6.50
2023-03-06T01:14:50.319Z,7.57
2023-03-06T01:17:17.301Z,6.10
2023-03-06T01:19:43.922Z,6.95
2023-03-06T01:22:10.638Z,7.00
2023-03-06T01:24:37.298Z,7.65
2023-03-06T01:27:03.964Z,7.40
2023-03-06T01:29:30.677Z,7.90
2023-03-06T01:31:57.325Z,7.65
2023-03-06T01:34:23.992Z,8.07
2023-03-06T01:36:50.597Z,8.45
2023-03-06T01:39:17.262Z,8.20
2023-03-06T01:41:43.892Z,8.90
2023-03-06T01:44:13.500Z,9.13
2023-03-06T01:46:47.054Z,9.07
2023-03-06T01:49:21.200Z,10.18
2023-03-06T01:51:53.202Z,9.32
2023-03-06T01:54:50.443Z,9.02
2023-03-06T01:57:30.877Z,9.45
2023-03-06T02:00:17.009Z,10.48
2023-03-06T02:03:09.212Z,10.20
2023-03-06T02:05:40.921Z,9.48
2023-03-06T02:08:09.685Z,9.52
2023-03-06T02:10:36.353Z,9.85
2023-03-06T02:13:03.192Z,10.13
2023-03-06T02:15:30.817Z,10.20
2023-03-06T02:17:57.471Z,10.10
2023-03-06T02:20:53.036Z,11.15
2023-03-06T02:23:50.465Z,11.13
2023-03-06T02:26:23.767Z,11.98
2023-03-06T02:28:50.428Z,11.43
2023-03-06T02:31:30.366Z,10.82
2023-03-06T02:34:13.945Z,11.82
2023-03-06T02:36:46.458Z,13.02
2023-03-06T02:39:14.554Z,12.10
2023-03-06T02:41:41.560Z,12.15
2023-03-06T02:44:08.323Z,12.30
2023-03-06T02:46:34.997Z,12.60
2023-03-06T02:49:01.844Z,11.95
2023-03-06T02:51:28.507Z,13.10
2023-03-06T02:53:58.026Z,13.60
2023-03-06T02:56:24.649Z,13.00
2023-03-06T02:58:51.998Z,12.38
2023-03-06T03:01:18.794Z,13.30
2023-03-06T03:03:45.454Z,11.70
2023-03-06T03:06:12.032Z,12.77
2023-03-06T03:08:41.372Z,12.13
2023-03-06T03:11:09.179Z,12.07
2023-03-06T03:13:36.334Z,11.55
2023-03-06T03:16:13.794Z,11.75
2023-03-06T03:18:41.262Z,11.55
2023-03-06T03:21:11.485Z,12.98
2023-03-06T03:23:38.214Z,12.65
2023-03-06T03:26:10.470Z,11.85
2023-03-06T03:28:37.343Z,11.10
2023-03-06T03:31:09.665Z,11.27
2023-03-06T03:33:36.867Z,10.70
2023-03-06T03:36:06.792Z,10.93
2023-03-06T03:38:34.197Z,10.10
2023-03-06T03:41:02.079Z,10.02
2023-03-06T03:43:28.713Z,9.40
2023-03-06T03:45:55.317Z,8.88
2023-03-06T03:48:22.322Z,8.93
2023-03-06T03:50:48.925Z,8.25
2023-03-06T03:53:15.519Z,8.70
2023-03-06T03:55:42.208Z,8.32
2023-03-06T03:58:08.887Z,7.53
2023-03-06T04:00:45.592Z,7.45
2023-03-06T04:03:12.184Z,6.68
2023-03-06T04:05:38.775Z,6.57
2023-03-06T04:08:05.633Z,6.05
2023-03-06T04:10:34.177Z,6.10
2023-03-06T04:13:00.963Z,6.05
2023-03-06T04:15:31.576Z,5.85
2023-03-06T04:17:58.423Z,5.38
2023-03-06T04:20:25.931Z,6.28
2023-03-06T04:22:52.513Z,5.68
2023-03-06T04:25:20.314Z,5.85
2023-03-06T04:27:46.931Z,5.57
2023-03-06T04:30:13.867Z,5.63
2023-03-06T04:32:40.504Z,6.10
2023-03-06T04:35:07.499Z,6.05
2023-03-06T04:37:34.140Z,5.90
2023-03-06T04:40:00.821Z,5.63
2023-03-06T04:42:27.661Z,6.15
2023-03-06T04:44:54.298Z,6.28
2023-03-06T04:47:20.945Z,6.80
2023-03-06T04:49:47.558Z,7.10
2023-03-06T04:52:14.144Z,8.25
2023-03-06T04:54:40.791Z,7.82
2023-03-06T04:57:07.920Z,8.30
2023-03-06T04:59:34.574Z,7.93
2023-03-06T05:02:01.247Z,8.45
2023-03-06T05:04:27.876Z,7.80
2023-03-06T05:06:54.508Z,8.25
2023-03-06T05:09:21.115Z,8.80
2023-03-06T05:11:47.693Z,8.30
2023-03-06T05:14:14.269Z,8.18
2023-03-06T05:16:40.964Z,8.52
2023-03-06T05:19:07.564Z,8.18
2023-03-06T05:21:34.201Z,8.85
2023-03-06T05:24:00.937Z,8.90
2023-03-06T05:26:27.571Z,8.23
2023-03-06T05:28:55.182Z,8.52
2023-03-06T05:31:21.819Z,9.30
2023-03-06T05:33:48.444Z,8.50
2023-03-06T05:36:15.045Z,9.63
2023-03-06T05:38:41.643Z,9.00
2023-03-06T05:41:15.156Z,9.98
2023-03-06T05:43:41.969Z,8.90
2023-03-06T05:46:09.085Z,9.48
2023-03-06T05:48:40.096Z,9.65
2023-03-06T05:51:06.840Z,8.68
2023-03-06T05:53:37.550Z,9.32
2023-03-06T05:56:11.522Z,9.38
2023-03-06T05:58:38.476Z,10.00
2023-03-06T06:01:15.208Z,10.05
2023-03-06T06:03:42.173Z,10.90
2023-03-06T06:06:19.013Z,10.63
2023-03-06T06:08:45.640Z,10.68
2023-03-06T06:11:13.990Z,10.98
2023-03-06T06:13:40.970Z,9.95
2023-03-06T06:16:16.261Z,9.75
2023-03-06T06:18:45.699Z,9.75
2023-03-06T06:21:14.629Z,10.60
2023-03-06T06:23:42.010Z,10.63
2023-03-06T06:26:09.508Z,9.73
2023-03-06T06:28:36.863Z,8.98
2023-03-06T06:31:13.585Z,9.15
2023-03-06T06:33:41.231Z,9.88
2023-03-06T06:36:21.452Z,9.95
2023-03-06T06:38:48.875Z,9.90
2023-03-06T06:44:08.914Z,9.93
2023-03-06T06:49:22.788Z,10.73
2023-03-06T06:51:51.939Z,10.45
2023-03-06T06:54:19.772Z,10.60
2023-03-06T06:56:46.383Z,10.52
2023-03-06T06:59:17.510Z,9.90
2023-03-06T07:01:44.559Z,9.32
2023-03-06T07:04:14.793Z,10.07
2023-03-06T07:06:42.991Z,10.00
2023-03-06T07:09:13.628Z,9.63
2023-03-06T07:11:40.912Z,9.32
2023-03-06T07:14:07.932Z,9.88
2023-03-06T07:16:34.826Z,9.73
2023-03-06T07:19:01.501Z,9.40
2023-03-06T07:21:28.193Z,9.23
2023-03-06T07:23:57.122Z,11.50
2023-03-06T07:26:25.605Z,10.93
2023-03-06T07:28:53.565Z,10.23
2023-03-06T07:31:26.841Z,11.02
2023-03-06T07:33:54.726Z,9.32
2023-03-06T07:36:23.157Z,9.10
2023-03-06T07:38:50.084Z,9.40
2023-03-06T07:41:20.444Z,9.75
2023-03-06T07:43:49.826Z,8.40
2023-03-06T07:46:16.577Z,9.10
2023-03-06T07:48:47.616Z,9.48
2023-03-06T07:51:18.749Z,9.27
2023-03-06T07:53:46.197Z,10.00
2023-03-06T07:56:13.624Z,9.60
2023-03-06T07:58:44.461Z,10.80
2023-03-06T08:01:19.743Z,9.27
2023-03-06T08:03:47.544Z,10.00
2023-03-06T08:06:17.069Z,10.00
2023-03-06T08:08:45.718Z,10.27
2023-03-06T08:11:15.159Z,10.30
2023-03-06T08:13:42.253Z,10.00
2023-03-06T08:16:10.528Z,10.38
2023-03-06T08:18:39.559Z,9.95
2023-03-06T08:21:11.452Z,10.18
2023-03-06T08:23:38.706Z,10.05
2023-03-06T08:26:10.564Z,10.63
2023-03-06T08:28:37.450Z,10.32
2023-03-06T08:31:14.354Z,10.32
2023-03-06T08:33:43.458Z,11.70
2023-03-06T08:36:10.296Z,11.27
2023-03-06T08:38:36.915Z,11.73
2023-03-06T08:41:04.063Z,11.40
2023-03-06T08:43:30.786Z,11.75
2023-03-06T08:45:58.873Z,13.43
2023-03-06T08:48:25.798Z,11.38
2023-03-06T08:50:54.248Z,11.00
2023-03-06T08:53:22.736Z,11.73
2023-03-06T08:55:54.678Z,10.88
2023-03-06T08:58:21.339Z,12.05
2023-03-06T09:00:48.847Z,11.00
2023-03-06T09:03:15.551Z,11.63
2023-03-06T09:05:42.256Z,10.88
2023-03-06T09:08:08.946Z,11.27
2023-03-06T09:10:35.608Z,10.05
2023-03-06T09:13:02.360Z,10.27
2023-03-06T09:15:29.197Z,10.95
2023-03-06T09:17:55.869Z,10.57
2023-03-06T09:20:22.650Z,9.93
2023-03-06T09:22:49.282Z,9.88
2023-03-06T09:25:20.368Z,10.45
2023-03-06T09:27:55.436Z,9.32
2023-03-06T09:30:28.663Z,10.20
2023-03-06T09:32:55.324Z,9.23
2023-03-06T09:35:21.938Z,9.35
2023-03-06T09:37:48.556Z,10.07
2023-03-06T09:40:50.788Z,10.02
2023-03-06T09:43:35.445Z,9.85
2023-03-06T09:46:16.526Z,10.30
2023-03-06T09:49:31.435Z,9.70
2023-03-06T09:52:38.407Z,10.20
2023-03-06T09:55:22.682Z,8.55
2023-03-06T09:58:07.542Z,9.60
2023-03-06T10:00:41.710Z,8.80
2023-03-06T10:03:52.470Z,9.73
2023-03-06T10:06:34.560Z,9.32
2023-03-06T10:09:17.493Z,9.13
2023-03-06T10:11:52.945Z,9.77
2023-03-06T10:14:41.952Z,9.27
2023-03-06T10:17:18.940Z,9.00
2023-03-06T10:19:47.580Z,8.25
2023-03-06T10:22:31.364Z,9.48
2023-03-06T10:25:27.784Z,8.57
2023-03-06T10:28:17.352Z,8.73
2023-03-06T10:31:10.323Z,7.85
2023-03-06T10:33:56.318Z,9.00
2023-03-06T10:36:29.544Z,8.75
2023-03-06T10:39:12.494Z,9.38
2023-03-06T10:41:39.091Z,10.02
2023-03-06T10:44:05.683Z,8.57
2023-03-06T10:46:42.185Z,9.30
2023-03-06T10:49:32.557Z,9.00
2023-03-06T10:52:14.471Z,9.50
2023-03-06T10:54:43.866Z,8.75
2023-03-06T10:57:31.761Z,9.55
2023-03-06T11:00:24.114Z,9.48
2023-03-06T11:03:13.549Z,9.20
2023-03-06T11:05:40.454Z,9.90
2023-03-06T11:08:22.753Z,10.65
2023-03-06T11:11:02.038Z,11.15
2023-03-06T11:13:36.195Z,11.68
2023-03-06T11:16:10.490Z,11.77
2023-03-06T11:18:42.674Z,11.73
2023-03-06T11:21:31.404Z,11.68
2023-03-06T11:24:06.010Z,12.10
2023-03-06T11:26:53.246Z,11.98
2023-03-06T11:29:38.867Z,11.45
2023-03-06T11:32:29.866Z,11.95
2023-03-06T11:35:22.489Z,11.43
2023-03-06T11:38:04.852Z,10.93
2023-03-06T11:40:44.892Z,11.05
2023-03-06T11:43:49.904Z,10.75
2023-03-06T11:46:29.165Z,10.95
2023-03-06T11:49:24.622Z,10.27
2023-03-06T11:52:06.931Z,10.18
2023-03-06T11:54:33.674Z,11.23
2023-03-06T11:57:07.976Z,11.07
2023-03-06T12:00:04.279Z,10.75
2023-03-06T12:03:20.186Z,11.05
2023-03-06T12:05:55.821Z,10.15
2023-03-06T12:08:48.021Z,9.88
2023-03-06T12:11:29.697Z,9.63
2023-03-06T12:14:22.549Z,9.95
2023-03-06T12:17:02.562Z,9.70
2023-03-06T12:20:11.719Z,9.30
2023-03-06T12:22:57.722Z,8.77
2023-03-06T12:25:54.392Z,9.25
2023-03-06T12:28:42.373Z,8.57
2023-03-06T12:31:42.692Z,9.02
2023-03-06T12:34:42.917Z,9.05
2023-03-06T12:37:35.236Z,9.80
2023-03-06T12:40:30.640Z,9.98
2023-03-06T12:43:51.204Z,8.98
2023-03-06T12:46:22.871Z,9.48
2023-03-06T12:49:32.476Z,8.65
2023-03-06T12:52:01.151Z,8.30
2023-03-06T12:54:31.393Z,8.82
2023-03-06T12:57:00.275Z,8.60
2023-03-06T12:59:48.681Z,8.20
2023-03-06T13:02:51.542Z,8.32
2023-03-06T13:05:50.372Z,7.95
2023-03-06T13:08:52.581Z,8.15
2023-03-06T13:11:38.977Z,7.90
2023-03-06T13:14:37.563Z,7.43
2023-03-06T13:17:21.182Z,7.70
2023-03-06T13:19:48.669Z,7.65
2023-03-06T13:22:28.026Z,8.30
2023-03-06T13:25:16.533Z,7.82
2023-03-06T13:27:53.097Z,8.38
2023-03-06T13:30:43.052Z,7.38
2023-03-06T13:33:29.770Z,7.32
2023-03-06T13:35:58.282Z,7.22
2023-03-06T13:38:59.887Z,7.55
2023-03-06T13:41:37.513Z,6.85
2023-03-06T13:44:39.763Z,7.20
2023-03-06T13:47:25.261Z,6.25
2023-03-06T13:49:52.004Z,6.68
2023-03-06T13:52:26.162Z,5.90
2023-03-06T13:54:55.432Z,7.13
2023-03-06T13:57:51.823Z,6.75
2023-03-06T14:00:46.338Z,6.15
2023-03-06T14:04:01.023Z,6.78
2023-03-06T14:06:41.670Z,6.75
2023-03-06T14:09:30.509Z,7.20
2023-03-06T14:12:06.641Z,6.90
2023-03-06T14:14:48.898Z,5.93
2023-03-06T14:17:32.281Z,6.82
2023-03-06T14:20:13.882Z,6.88
2023-03-06T14:22:40.746Z,7.07
2023-03-06T14:25:28.340Z,7.80
2023-03-06T14:27:58.288Z,7.68
2023-03-06T14:30:32.191Z,7.82
2023-03-06T14:32:59.191Z,7.22
2023-03-06T14:35:30.406Z,7.10
2023-03-06T14:38:02.052Z,7.78
2023-03-06T14:40:45.006Z,7.65
2023-03-06T14:43:24.325Z,6.30
2023-03-06T14:46:00.486Z,7.68
2023-03-06T14:48:39.523Z,7.95
2023-03-06T14:51:14.225Z,7.00
2023-03-06T14:53:41.215Z,7.35
2023-03-06T14:56:08.012Z,7.78
2023-03-06T14:58:44.402Z,7.70
2023-03-06T15:01:13.376Z,7.57
2023-03-06T15:03:49.526Z,8.13
2023-03-06T15:06:38.265Z,7.07
2023-03-06T15:09:16.905Z,8.00
2023-03-06T15:12:04.543Z,7.38
2023-03-06T15:14:41.790Z,7.43
2023-03-06T15:17:17.285Z,8.68
2023-03-06T15:19:47.005Z,8.30
2023-03-06T15:22:26.900Z,7.70
2023-03-06T15:25:03.737Z,14.90
2023-03-06T15:27:30.643Z,8.82
2023-03-06T15:30:43.232Z,9.13
2023-03-06T15:33:17.894Z,8.95
2023-03-06T15:36:03.624Z,9.27
2023-03-06T15:38:43.103Z,9.43
2023-03-06T15:41:35.583Z,8.43
2023-03-06T15:44:11.050Z,9.15
2023-03-06T15:46:37.725Z,9.15
2023-03-06T15:49:04.763Z,9.88
2023-03-06T15:51:33.637Z,9.40
2023-03-06T15:54:11.249Z,8.45
2023-03-06T15:56:42.195Z,8.32
2023-03-06T15:59:21.588Z,9.65
2023-03-06T16:01:49.153Z,10.38
2023-03-06T16:04:16.936Z,10.00
2023-03-06T16:06:45.680Z,9.65
2023-03-06T16:09:13.664Z,9.45
2023-03-06T16:11:47.124Z,9.02
2023-03-06T16:14:21.167Z,10.05
2023-03-06T16:16:48.496Z,9.77
2023-03-06T16:19:27.897Z,9.10
2023-03-06T16:21:56.465Z,10.20
2023-03-06T16:24:23.421Z,10.30
2023-03-06T16:26:52.410Z,10.27
2023-03-06T16:29:22.861Z,9.75
2023-03-06T16:31:49.868Z,10.20
2023-03-06T16:34:16.956Z,9.50
2023-03-06T16:36:43.555Z,9.88
2023-03-06T16:39:18.592Z,10.40
2023-03-06T16:41:49.281Z,10.23
2023-03-06T16:44:16.249Z,9.30
2023-03-06T16:46:49.064Z,9.65
2023-03-06T16:49:24.098Z,10.13
2023-03-06T16:51:51.960Z,10.63
2023-03-06T16:54:19.689Z,10.63
2023-03-06T16:56:46.342Z,10.90
2023-03-06T16:59:13.301Z,10.40
2023-03-06T17:01:42.804Z,10.45
2023-03-06T17:04:09.778Z,10.30
2023-03-06T17:06:37.040Z,10.30
2023-03-06T17:09:07.854Z,11.15
2023-03-06T17:11:38.517Z,10.68
2023-03-06T17:14:06.692Z,9.95
2023-03-06T17:16:33.331Z,9.50
2023-03-06T17:19:01.904Z,9.95
2023-03-06T17:21:30.067Z,10.45
2023-03-06T17:23:57.140Z,10.48
2023-03-06T17:26:23.891Z,10.82
2023-03-06T17:28:50.497Z,10.75
2023-03-06T17:31:20.695Z,10.18
2023-03-06T17:33:48.002Z,10.82
2023-03-06T17:36:16.146Z,11.88
2023-03-06T17:38:43.364Z,10.55
2023-03-06T17:41:12.971Z,10.93
2023-03-06T17:43:40.463Z,11.02
2023-03-06T17:46:10.809Z,10.35
2023-03-06T17:48:37.886Z,9.32
2023-03-06T17:51:05.448Z,11.35
2023-03-06T17:53:32.176Z,11.38
2023-03-06T17:55:58.881Z,11.18
2023-03-06T17:58:26.872Z,12.23
2023-03-06T18:00:53.822Z,13.00
2023-03-06T18:03:20.597Z,11.60
2023-03-06T18:05:47.295Z,11.73
2023-03-06T18:08:14.051Z,11.30
2023-03-06T18:10:42.025Z,11.60
2023-03-06T18:13:10.020Z,11.35
2023-03-06T18:15:40.660Z,10.98
2023-03-06T18:18:09.293Z,11.45
2023-03-06T18:20:41.450Z,12.32
2023-03-06T18:23:08.534Z,11.70
2023-03-06T18:25:38.710Z,11.63
2023-03-06T18:28:05.953Z,11.70
2023-03-06T18:30:36.572Z,12.02
2023-03-06T18:33:03.572Z,11.45
2023-03-06T18:35:34.282Z,12.30
2023-03-06T18:38:01.338Z,12.05
2023-03-06T18:40:28.110Z,12.18
2023-03-06T18:42:55.119Z,12.02
2023-03-06T18:45:21.757Z,11.95
2023-03-06T18:47:48.435Z,11.20
2023-03-06T18:50:17.350Z,12.38
2023-03-06T18:52:47.776Z,13.73
2023-03-06T18:55:14.416Z,14.93
2023-03-06T18:57:41.270Z,13.93
2023-03-06T19:00:09.393Z,12.07
2023-03-06T19:02:35.973Z,14.10
2023-03-06T19:05:03.017Z,12.90
2023-03-06T19:07:29.684Z,13.63
2023-03-06T19:09:56.268Z,12.27
2023-03-06T19:12:23.361Z,12.38
2023-03-06T19:14:50.196Z,12.88
2023-03-06T19:17:16.767Z,14.80
2023-03-06T19:19:43.444Z,12.88
2023-03-06T19:22:10.034Z,13.32
2023-03-06T19:24:36.645Z,11.73
2023-03-06T19:27:03.241Z,12.60
2023-03-06T19:29:29.940Z,12.50
2023-03-06T19:31:57.320Z,13.50
2023-03-06T19:34:24.101Z,13.05
2023-03-06T19:36:51.468Z,12.25
2023-03-06T19:39:18.099Z,11.77
2023-03-06T19:41:47.442Z,13.50
2023-03-06T19:44:16.017Z,18.58
2023-03-06T19:46:43.424Z,24.05
2023-03-06T19:49:16.683Z,19.38
2023-03-06T19:51:43.862Z,18.35
2023-03-06T19:54:12.815Z,14.20
2023-03-06T19:56:39.941Z,15.02
2023-03-06T19:59:06.594Z,12.88
2023-03-06T20:01:34.096Z,12.82
2023-03-06T20:04:01.158Z,12.50
2023-03-06T20:06:33.541Z,13.05
2023-03-06T20:09:02.349Z,11.95
2023-03-06T20:11:32.387Z,13.90
2023-03-06T20:14:09.032Z,14.15
2023-03-06T20:16:35.747Z,11.43
2023-03-06T20:19:02.584Z,11.35
2023-03-06T20:21:32.851Z,10.70
2023-03-06T20:23:59.774Z,10.88
2023-03-06T20:26:28.761Z,9.68
2023-03-06T20:28:56.068Z,10.18
2023-03-06T20:31:27.086Z,9.98
2023-03-06T20:33:56.314Z,9.85
2023-03-06T20:36:30.445Z,10.75
2023-03-06T20:39:01.288Z,10.02
2023-03-06T20:41:32.107Z,9.88
2023-03-06T20:44:04.034Z,10.85
2023-03-06T20:46:32.886Z,9.60
2023-03-06T20:49:08.171Z,9.05
2023-03-06T20:51:38.919Z,9.75
2023-03-06T20:54:08.391Z,9.65
2023-03-06T20:56:39.219Z,9.82
2023-03-06T20:59:11.827Z,9.95
2023-03-06T21:01:42.071Z,9.88
2023-03-06T21:04:11.080Z,10.27
2023-03-06T21:06:38.204Z,9.88
2023-03-06T21:09:06.641Z,9.30
2023-03-06T21:11:35.145Z,10.73
2023-03-06T21:14:01.941Z,9.90
2023-03-06T21:16:30.855Z,9.85
2023-03-06T21:18:59.579Z,10.07
2023-03-06T21:21:30.224Z,10.63
2023-03-06T21:23:57.496Z,9.60
2023-03-06T21:26:27.420Z,10.38
2023-03-06T21:28:56.806Z,10.15
2023-03-06T21:31:24.716Z,10.07
2023-03-06T21:33:51.630Z,9.35
2023-03-06T21:36:21.571Z,9.68
2023-03-06T21:38:51.595Z,9.90
2023-03-06T21:41:27.281Z,9.80
2023-03-06T21:44:03.307Z,11.00
2023-03-06T21:46:30.514Z,10.98
2023-03-06T21:48:57.912Z,10.93
2023-03-06T21:51:26.471Z,10.48
2023-03-06T21:53:54.557Z,10.75
2023-03-06T21:56:24.859Z,10.98
2023-03-06T21:58:51.624Z,10.73
2023-03-06T22:01:26.485Z,11.32
2023-03-06T22:03:59.753Z,11.02
2023-03-06T22:06:28.708Z,10.05
2023-03-06T22:08:56.779Z,11.23
2023-03-06T22:11:24.727Z,10.90
2023-03-06T22:13:53.219Z,10.90
2023-03-06T22:16:20.714Z,10.75
2023-03-06T22:18:50.431Z,11.63
2023-03-06T22:21:20.322Z,11.48
2023-03-06T22:23:51.847Z,11.82
2023-03-06T22:26:18.889Z,11.30
2023-03-06T22:28:45.850Z,11.45
2023-03-06T22:31:19.417Z,13.07
2023-03-06T22:33:46.327Z,13.57
2023-03-06T22:36:15.832Z,13.50
2023-03-06T22:38:45.302Z,13.60
2023-03-06T22:41:14.684Z,15.93
2023-03-06T22:43:42.280Z,15.80
2023-03-06T22:46:15.930Z,14.77
2023-03-06T22:48:43.446Z,16.48
2023-03-06T22:51:16.657Z,16.27
2023-03-06T22:53:43.868Z,15.70
2023-03-06T22:56:14.173Z,17.05
2023-03-06T22:58:41.172Z,13.48
2023-03-06T23:01:10.329Z,12.50
2023-03-06T23:03:39.873Z,12.15
2023-03-06T23:06:18.828Z,12.65
2023-03-06T23:08:56.646Z,11.02
2023-03-06T23:11:24.724Z,10.98
2023-03-06T23:13:52.725Z,10.82
2023-03-06T23:16:19.475Z,11.55
2023-03-06T23:18:48.254Z,11.15
2023-03-06T23:21:17.267Z,10.50
2023-03-06T23:23:48.940Z,11.25
2023-03-06T23:26:22.268Z,11.70
2023-03-06T23:28:49.211Z,12.20
2023-03-06T23:31:20.840Z,11.95
2023-03-06T23:33:47.913Z,12.38
2023-03-06T23:36:17.481Z,12.35
2023-03-06T23:38:44.453Z,12.15
2023-03-06T23:41:16.436Z,13.75
2023-03-06T23:43:43.614Z,13.15
2023-03-06T23:46:10.481Z,13.63
2023-03-06T23:48:40.573Z,13.43
2023-03-06T23:51:10.110Z,13.02
2023-03-06T23:53:36.783Z,13.38
2023-03-06T23:56:06.189Z,13.93
2023-03-06T23:58:33.115Z,12.85
